createdAt,value
2023-05-08T00:01:19.853Z,12.13
2023-05-08T00:03:46.347Z,12.15
2023-05-08T00:06:12.834Z,12.15
2023-05-08T00:08:39.509Z,12.15
2023-05-08T00:11:06.061Z,12.11
2023-05-08T00:13:32.511Z,12.11
2023-05-08T00:15:59.246Z,12.10
2023-05-08T00:18:26.477Z,12.05
2023-05-08T00:20:52.999Z,12.00
2023-05-08T00:23:22.017Z,11.99
2023-05-08T00:25:48.422Z,11.97
2023-05-08T00:28:14.803Z,11.96
2023-05-08T00:30:41.208Z,11.97
2023-05-08T00:33:07.790Z,11.96
2023-05-08T00:35:34.426Z,11.95
2023-05-08T00:38:01.367Z,11.94
2023-05-08T00:40:28.041Z,11.94
2023-05-08T00:42:54.434Z,11.95
2023-05-08T00:45:20.918Z,11.94
2023-05-08T00:47:47.520Z,11.92
2023-05-08T00:50:14.271Z,11.91
2023-05-08T00:52:41.402Z,11.88
2023-05-08T00:55:08.369Z,11.84
2023-05-08T00:57:37.773Z,11.82
2023-05-08T01:00:05.508Z,11.83
2023-05-08T01:02:32.544Z,11.79
2023-05-08T01:04:59.993Z,11.73
2023-05-08T01:07:27.534Z,11.60
2023-05-08T01:09:53.995Z,11.49
2023-05-08T01:12:40.023Z,11.42
2023-05-08T01:15:17.458Z,11.40
2023-05-08T01:17:59.419Z,11.41
2023-05-08T01:20:42.179Z,11.40
2023-05-08T01:23:24.843Z,11.40
2023-05-08T01:26:12.851Z,11.37
2023-05-08T01:29:16.261Z,11.35
2023-05-08T01:32:10.943Z,11.33
2023-05-08T01:34:44.618Z,11.27
2023-05-08T01:37:23.828Z,11.23
2023-05-08T01:40:10.809Z,11.18
2023-05-08T01:42:49.229Z,11.13
2023-05-08T01:45:39.330Z,11.09
2023-05-08T01:48:10.789Z,11.07
2023-05-08T01:50:46.195Z,11.07
2023-05-08T01:53:24.432Z,11.09
2023-05-08T01:55:55.886Z,11.11
2023-05-08T01:58:24.837Z,11.10
2023-05-08T02:00:52.974Z,11.06
2023-05-08T02:03:21.636Z,11.03
2023-05-08T02:05:50.491Z,10.97
2023-05-08T02:08:20.902Z,10.95
2023-05-08T02:10:50.469Z,10.93
2023-05-08T02:13:20.161Z,10.93
2023-05-08T02:15:52.863Z,10.94
2023-05-08T02:18:21.602Z,10.98
2023-05-08T02:20:51.520Z,10.99
2023-05-08T02:23:19.971Z,11.00
2023-05-08T02:25:47.803Z,11.01
2023-05-08T02:28:16.501Z,11.03
2023-05-08T02:30:44.412Z,11.06
2023-05-08T02:33:13.323Z,11.04
2023-05-08T02:35:43.977Z,11.04
2023-05-08T02:38:12.576Z,11.04
2023-05-08T02:40:45.086Z,11.05
2023-05-08T02:43:12.068Z,11.07
2023-05-08T02:45:48.452Z,11.06
2023-05-08T02:48:26.190Z,11.05
2023-05-08T02:51:03.048Z,11.05
2023-05-08T02:53:37.608Z,11.06
2023-05-08T02:56:16.789Z,10.97
2023-05-08T02:58:49.013Z,10.92
2023-05-08T03:01:30.128Z,10.91
2023-05-08T03:04:04.320Z,10.89
2023-05-08T03:06:37.014Z,10.90
2023-05-08T03:09:05.944Z,10.91
2023-05-08T03:11:40.854Z,10.94
2023-05-08T03:14:11.186Z,10.94
2023-05-08T03:16:41.480Z,10.95
2023-05-08T03:19:15.054Z,10.93
2023-05-08T03:21:44.120Z,10.93
2023-05-08T03:24:11.359Z,10.91
2023-05-08T03:26:38.258Z,10.88
2023-05-08T03:29:06.059Z,10.88
2023-05-08T03:31:34.286Z,10.88
2023-05-08T03:34:02.375Z,10.85
2023-05-08T03:36:30.424Z,10.77
2023-05-08T03:38:56.986Z,10.72
2023-05-08T03:41:25.726Z,10.70
2023-05-08T03:43:53.355Z,10.66
2023-05-08T03:46:20.972Z,10.65
2023-05-08T03:48:50.327Z,10.64
2023-05-08T03:51:17.363Z,10.64
2023-05-08T03:53:43.945Z,10.61
2023-05-08T03:56:10.504Z,10.60
2023-05-08T03:58:42.801Z,10.59
2023-05-08T04:01:25.374Z,10.58
2023-05-08T04:04:14.828Z,10.51
2023-05-08T04:06:55.027Z,10.45
2023-05-08T04:09:28.921Z,10.38
2023-05-08T04:12:20.440Z,10.30
2023-05-08T04:14:56.557Z,10.29
2023-05-08T04:17:39.306Z,10.27
2023-05-08T04:20:07.403Z,10.27
2023-05-08T04:22:35.664Z,10.26
2023-05-08T04:25:06.599Z,10.27
2023-05-08T04:27:33.916Z,10.27
2023-05-08T04:30:01.422Z,10.30
2023-05-08T04:32:29.225Z,10.28
2023-05-08T04:34:56.372Z,10.30
2023-05-08T04:37:24.556Z,10.34
2023-05-08T04:39:51.508Z,10.37
2023-05-08T04:42:18.197Z,10.39
2023-05-08T04:44:44.676Z,10.40
2023-05-08T04:47:11.108Z,10.44
2023-05-08T04:49:37.486Z,10.49
2023-05-08T04:52:04.314Z,10.59
2023-05-08T04:54:30.797Z,10.67
2023-05-08T04:56:57.579Z,10.72
2023-05-08T04:59:25.021Z,10.75
2023-05-08T05:01:51.664Z,10.76
2023-05-08T05:04:18.423Z,10.83
2023-05-08T05:06:44.946Z,10.93
2023-05-08T05:09:11.789Z,11.02
2023-05-08T05:11:38.248Z,11.07
2023-05-08T05:14:04.750Z,11.25
2023-05-08T05:16:31.313Z,11.61
2023-05-08T05:18:57.821Z,12.23
2023-05-08T05:21:24.359Z,12.73
2023-05-08T05:23:50.823Z,13.33
2023-05-08T05:26:17.296Z,13.46
2023-05-08T05:28:43.753Z,14.04
2023-05-08T05:31:10.681Z,13.60
2023-05-08T05:33:37.166Z,13.21
2023-05-08T05:36:03.873Z,12.95
2023-05-08T05:38:30.307Z,12.78
2023-05-08T05:40:56.854Z,12.76
2023-05-08T05:43:23.267Z,12.78
2023-05-08T05:45:49.775Z,12.87
2023-05-08T05:48:16.558Z,13.03
2023-05-08T05:50:43.103Z,13.17
2023-05-08T05:53:10.033Z,13.23
2023-05-08T05:55:36.602Z,13.28
2023-05-08T05:58:03.307Z,13.81
2023-05-08T06:00:31.227Z,14.11
2023-05-08T06:02:58.018Z,14.30
2023-05-08T06:05:24.720Z,14.77
2023-05-08T06:07:51.340Z,15.46
2023-05-08T06:10:18.041Z,16.23
2023-05-08T06:12:44.525Z,16.35
2023-05-08T06:15:11.907Z,16.12
2023-05-08T06:17:38.787Z,15.86
2023-05-08T06:20:06.531Z,16.31
2023-05-08T06:22:32.974Z,16.66
2023-05-08T06:24:59.908Z,16.48
2023-05-08T06:27:26.445Z,16.38
2023-05-08T06:29:53.549Z,16.11
2023-05-08T06:32:20.882Z,15.71
2023-05-08T06:34:48.016Z,15.64
2023-05-08T06:37:15.952Z,15.57
2023-05-08T06:39:42.394Z,15.62
2023-05-08T06:42:09.155Z,15.43
2023-05-08T06:44:36.173Z,15.45
2023-05-08T06:47:02.734Z,15.47
2023-05-08T06:49:29.378Z,15.57
2023-05-08T06:51:57.833Z,15.68
2023-05-08T06:54:24.750Z,15.74
2023-05-08T06:56:53.117Z,15.97
2023-05-08T06:59:20.133Z,16.15
2023-05-08T07:01:47.081Z,16.28
2023-05-08T07:04:14.016Z,16.49
2023-05-08T07:06:40.966Z,16.65
2023-05-08T07:09:07.562Z,16.68
2023-05-08T07:11:34.074Z,16.76
2023-05-08T07:14:00.725Z,16.84
2023-05-08T07:16:27.270Z,16.71
2023-05-08T07:18:53.662Z,16.54
2023-05-08T07:21:21.303Z,16.76
2023-05-08T07:23:50.394Z,16.78
2023-05-08T07:26:17.697Z,16.70
2023-05-08T07:28:44.161Z,16.64
2023-05-08T07:31:10.633Z,16.53
2023-05-08T07:33:37.480Z,16.44
2023-05-08T07:36:04.055Z,16.43
2023-05-08T07:38:30.755Z,16.38
2023-05-08T07:40:57.844Z,16.35
2023-05-08T07:43:24.394Z,16.37
2023-05-08T07:45:51.237Z,16.37
2023-05-08T07:48:17.897Z,16.37
2023-05-08T07:50:44.757Z,16.42
2023-05-08T07:53:11.263Z,16.33
2023-05-08T07:55:37.687Z,16.34
2023-05-08T07:58:04.199Z,16.56
2023-05-08T08:00:31.402Z,16.77
2023-05-08T08:02:58.109Z,16.88
2023-05-08T08:05:24.686Z,16.84
2023-05-08T08:07:51.293Z,16.75
2023-05-08T08:10:17.780Z,16.76
2023-05-08T08:12:44.311Z,16.85
2023-05-08T08:15:11.019Z,16.96
2023-05-08T08:17:37.789Z,17.02
2023-05-08T08:20:04.952Z,17.03
2023-05-08T08:22:31.320Z,17.06
2023-05-08T08:24:57.722Z,16.90
2023-05-08T08:27:24.318Z,16.99
2023-05-08T08:29:52.601Z,17.05
2023-05-08T08:32:25.271Z,17.10
2023-05-08T08:34:51.962Z,16.95
2023-05-08T08:37:18.719Z,16.83
2023-05-08T08:39:45.339Z,17.01
2023-05-08T08:42:12.373Z,17.15
2023-05-08T08:44:40.045Z,17.24
2023-05-08T08:47:10.415Z,17.33
2023-05-08T08:49:42.974Z,17.41
2023-05-08T08:52:25.472Z,17.61
2023-05-08T08:54:52.706Z,17.93
2023-05-08T08:57:20.069Z,18.13
2023-05-08T08:59:46.874Z,18.20
2023-05-08T09:02:17.925Z,18.20
2023-05-08T09:04:44.762Z,18.20
2023-05-08T09:07:12.075Z,18.32
2023-05-08T09:09:44.620Z,18.50
2023-05-08T09:12:12.798Z,18.45
2023-05-08T09:14:39.306Z,18.44
2023-05-08T09:17:05.801Z,18.24
2023-05-08T09:19:33.851Z,18.41
2023-05-08T09:22:01.296Z,18.80
2023-05-08T09:24:53.363Z,18.82
2023-05-08T09:27:25.002Z,18.88
2023-05-08T09:30:08.531Z,19.05
2023-05-08T09:32:37.911Z,19.23
2023-05-08T09:35:06.519Z,19.37
2023-05-08T09:37:33.949Z,19.52
2023-05-08T09:40:26.428Z,19.37
2023-05-08T09:42:52.788Z,19.52
2023-05-08T09:45:30.263Z,19.51
2023-05-08T09:47:57.210Z,19.64
2023-05-08T09:50:25.116Z,20.13
2023-05-08T09:52:51.664Z,20.40
2023-05-08T09:55:18.759Z,20.31
2023-05-08T09:57:58.274Z,20.30
2023-05-08T10:00:26.536Z,20.37
2023-05-08T10:02:59.114Z,20.20
2023-05-08T10:05:25.777Z,20.27
2023-05-08T10:07:52.644Z,20.37
2023-05-08T10:10:26.899Z,20.45
2023-05-08T10:12:55.449Z,20.52
2023-05-08T10:15:24.765Z,20.78
2023-05-08T10:18:02.464Z,21.02
2023-05-08T10:20:30.864Z,21.05
2023-05-08T10:22:58.909Z,20.66
2023-05-08T10:25:26.305Z,20.54
2023-05-08T10:28:05.548Z,20.42
2023-05-08T10:30:34.176Z,20.55
2023-05-08T10:33:03.228Z,20.39
2023-05-08T10:35:31.583Z,20.20
2023-05-08T10:37:59.049Z,20.18
2023-05-08T10:40:25.682Z,20.25
2023-05-08T10:42:52.285Z,20.24
2023-05-08T10:45:18.906Z,20.49
2023-05-08T10:47:52.279Z,20.70
2023-05-08T10:50:36.818Z,20.96
2023-05-08T10:53:15.832Z,21.25
2023-05-08T10:55:45.965Z,21.60
2023-05-08T10:58:29.264Z,21.33
2023-05-08T11:01:07.367Z,21.39
2023-05-08T11:03:45.992Z,21.55
2023-05-08T11:06:13.137Z,21.27
2023-05-08T11:08:51.622Z,21.17
2023-05-08T11:11:25.203Z,21.13
2023-05-08T11:13:56.382Z,21.04
2023-05-08T11:16:54.019Z,21.06
2023-05-08T11:19:25.208Z,20.94
2023-05-08T11:22:10.690Z,20.76
2023-05-08T11:24:38.565Z,20.66
2023-05-08T11:27:05.051Z,20.87
2023-05-08T11:29:31.560Z,20.95
2023-05-08T11:31:58.289Z,20.89
2023-05-08T11:34:54.239Z,21.06
2023-05-08T11:37:24.023Z,21.17
2023-05-08T11:39:50.782Z,21.27
2023-05-08T11:42:29.148Z,21.30
2023-05-08T11:45:14.221Z,21.79
2023-05-08T11:47:42.843Z,22.00
2023-05-08T11:50:11.005Z,21.88
2023-05-08T11:52:39.443Z,22.13
2023-05-08T11:55:11.176Z,22.24
2023-05-08T11:57:38.041Z,22.14
2023-05-08T12:00:06.268Z,21.84
2023-05-08T12:02:40.863Z,21.39
2023-05-08T12:05:09.098Z,21.29
2023-05-08T12:07:48.996Z,21.03
2023-05-08T12:12:44.996Z,21.93
2023-05-08T12:15:14.084Z,22.13
2023-05-08T12:17:41.487Z,22.04
2023-05-08T12:20:19.160Z,21.69
2023-05-08T12:22:53.229Z,21.52
2023-05-08T12:25:20.161Z,21.92
2023-05-08T12:27:47.056Z,22.37
2023-05-08T12:30:14.700Z,22.75
2023-05-08T12:32:42.600Z,23.14
2023-05-08T12:35:10.925Z,22.83
2023-05-08T12:37:37.818Z,22.49
2023-05-08T12:40:05.593Z,22.27
2023-05-08T12:42:45.369Z,22.12
2023-05-08T12:45:20.996Z,22.45
2023-05-08T12:47:51.937Z,22.74
2023-05-08T12:50:23.112Z,22.77
2023-05-08T12:52:51.604Z,22.73
2023-05-08T12:55:30.256Z,23.20
2023-05-08T12:58:01.091Z,23.62
2023-05-08T13:00:47.291Z,23.27
2023-05-08T13:03:28.345Z,22.90
2023-05-08T13:05:57.004Z,22.65
2023-05-08T13:08:37.338Z,22.60
2023-05-08T13:11:06.441Z,22.64
2023-05-08T13:13:34.827Z,22.41
2023-05-08T13:16:06.623Z,22.20
2023-05-08T13:18:36.137Z,22.18
2023-05-08T13:21:03.781Z,21.95
2023-05-08T13:23:30.344Z,21.99
2023-05-08T13:25:57.009Z,21.95
2023-05-08T13:28:23.348Z,21.98
2023-05-08T13:30:49.818Z,22.06
2023-05-08T13:33:16.298Z,22.32
2023-05-08T13:35:42.908Z,22.19
2023-05-08T13:38:09.381Z,21.94
2023-05-08T13:40:35.956Z,21.77
2023-05-08T13:43:02.367Z,21.70
2023-05-08T13:45:28.885Z,21.76
2023-05-08T13:47:55.560Z,21.88
2023-05-08T13:50:22.128Z,21.59
2023-05-08T13:52:49.665Z,21.80
2023-05-08T13:55:17.621Z,22.02
2023-05-08T13:57:44.265Z,22.06
2023-05-08T14:00:11.436Z,22.21
2023-05-08T14:02:38.117Z,22.41
2023-05-08T14:05:07.180Z,22.47
2023-05-08T14:07:33.998Z,22.61
2023-05-08T14:10:00.622Z,22.60
2023-05-08T14:12:27.175Z,22.63
2023-05-08T14:14:53.604Z,22.47
2023-05-08T14:17:20.017Z,22.27
2023-05-08T14:19:46.564Z,22.07
2023-05-08T14:22:12.959Z,22.16
2023-05-08T14:24:40.029Z,22.30
2023-05-08T14:27:06.665Z,22.23
2023-05-08T14:29:34.158Z,22.16
2023-05-08T14:32:00.963Z,22.08
2023-05-08T14:34:27.509Z,22.01
2023-05-08T14:36:54.050Z,22.16
2023-05-08T14:39:20.721Z,22.24
2023-05-08T14:42:05.266Z,22.34
2023-05-08T14:44:33.807Z,22.51
2023-05-08T14:47:00.282Z,22.48
2023-05-08T14:49:36.636Z,22.47
2023-05-08T14:52:04.566Z,22.74
2023-05-08T14:54:31.626Z,22.92
2023-05-08T14:56:58.108Z,22.76
2023-05-08T14:59:24.581Z,22.67
2023-05-08T15:01:51.150Z,22.47
2023-05-08T15:04:18.078Z,22.39
2023-05-08T15:06:44.679Z,22.19
2023-05-08T15:09:11.212Z,22.11
2023-05-08T15:11:37.785Z,22.11
2023-05-08T15:14:05.064Z,22.11
2023-05-08T15:16:31.688Z,21.87
2023-05-08T15:18:58.188Z,21.84
2023-05-08T15:21:26.647Z,21.86
2023-05-08T15:23:54.931Z,21.98
2023-05-08T15:26:22.224Z,21.94
2023-05-08T15:28:49.091Z,21.81
2023-05-08T15:31:15.991Z,21.71
2023-05-08T15:33:44.949Z,21.76
2023-05-08T15:36:12.806Z,21.82
2023-05-08T15:38:40.868Z,21.91
2023-05-08T15:41:12.130Z,22.00
2023-05-08T15:43:40.911Z,22.10
2023-05-08T15:46:07.476Z,22.14
2023-05-08T15:48:34.163Z,22.07
2023-05-08T15:51:00.709Z,22.24
2023-05-08T15:53:27.140Z,22.28
2023-05-08T15:55:54.162Z,22.13
2023-05-08T15:58:21.126Z,21.83
2023-05-08T16:00:48.033Z,21.92
2023-05-08T16:03:14.868Z,21.89
2023-05-08T16:05:41.521Z,21.78
2023-05-08T16:08:12.212Z,21.63
2023-05-08T16:10:39.572Z,21.49
2023-05-08T16:13:06.266Z,21.30
2023-05-08T16:15:32.726Z,21.25
2023-05-08T16:17:59.432Z,21.22
2023-05-08T16:20:26.116Z,21.24
2023-05-08T16:22:54.861Z,21.17
2023-05-08T16:25:21.902Z,21.17
2023-05-08T16:27:48.374Z,21.16
2023-05-08T16:30:15.215Z,21.17
2023-05-08T16:32:41.818Z,21.16
2023-05-08T16:35:08.721Z,21.12
2023-05-08T16:37:36.178Z,21.12
2023-05-08T16:40:04.391Z,20.95
2023-05-08T16:42:30.945Z,21.03
2023-05-08T16:44:57.402Z,21.07
2023-05-08T16:47:23.918Z,20.93
2023-05-08T16:49:50.348Z,20.81
2023-05-08T16:52:16.840Z,20.81
2023-05-08T16:54:43.210Z,20.79
2023-05-08T16:57:09.619Z,20.76
2023-05-08T16:59:36.045Z,20.89
2023-05-08T17:02:02.512Z,21.03
2023-05-08T17:04:30.790Z,21.11
2023-05-08T17:06:57.560Z,21.08
2023-05-08T17:09:25.310Z,21.10
2023-05-08T17:11:51.806Z,21.20
2023-05-08T17:14:18.518Z,21.35
2023-05-08T17:16:45.292Z,21.40
2023-05-08T17:19:11.741Z,21.31
2023-05-08T17:21:38.184Z,21.29
2023-05-08T17:24:04.827Z,21.20
2023-05-08T17:26:33.936Z,20.94
2023-05-08T17:29:00.749Z,20.78
2023-05-08T17:31:28.662Z,20.63
2023-05-08T17:33:55.193Z,20.43
2023-05-08T17:36:21.941Z,20.40
2023-05-08T17:38:50.120Z,20.34
2023-05-08T17:41:16.671Z,20.25
2023-05-08T17:43:43.195Z,20.28
2023-05-08T17:46:09.861Z,20.25
2023-05-08T17:48:36.433Z,20.20
2023-05-08T17:51:03.199Z,20.15
2023-05-08T17:53:30.743Z,20.14
2023-05-08T17:55:57.891Z,20.11
2023-05-08T17:58:25.143Z,20.04
2023-05-08T18:00:52.580Z,19.99
2023-05-08T18:03:19.286Z,19.94
2023-05-08T18:05:45.769Z,19.82
2023-05-08T18:08:12.110Z,19.69
2023-05-08T18:10:39.370Z,19.62
2023-05-08T18:13:06.114Z,19.53
2023-05-08T18:15:36.066Z,19.40
2023-05-08T18:18:02.570Z,19.38
2023-05-08T18:20:29.182Z,19.36
2023-05-08T18:22:55.758Z,19.25
2023-05-08T18:25:22.295Z,19.21
2023-05-08T18:27:50.061Z,19.21
2023-05-08T18:30:19.340Z,19.17
2023-05-08T18:32:45.831Z,19.05
2023-05-08T18:35:12.313Z,19.00
2023-05-08T18:37:38.786Z,18.95
2023-05-08T18:40:06.325Z,18.88
2023-05-08T18:42:32.732Z,18.84
2023-05-08T18:45:00.600Z,18.83
2023-05-08T18:47:27.042Z,18.76
2023-05-08T18:49:53.721Z,18.62
2023-05-08T18:52:20.359Z,18.58
2023-05-08T18:54:46.761Z,18.52
2023-05-08T18:57:13.333Z,18.43
2023-05-08T18:59:39.750Z,18.43
2023-05-08T19:02:06.224Z,18.38
2023-05-08T19:04:32.672Z,18.22
2023-05-08T19:06:59.297Z,18.20
2023-05-08T19:09:25.890Z,18.17
2023-05-08T19:11:52.253Z,18.07
2023-05-08T19:14:18.742Z,17.99
2023-05-08T19:16:45.149Z,17.89
2023-05-08T19:19:11.586Z,17.82
2023-05-08T19:21:37.944Z,17.71
2023-05-08T19:24:04.579Z,17.61
2023-05-08T19:26:31.150Z,17.54
2023-05-08T19:28:57.601Z,17.50
2023-05-08T19:31:24.206Z,17.46
2023-05-08T19:33:50.739Z,17.44
2023-05-08T19:36:18.324Z,17.38
2023-05-08T19:38:44.768Z,17.30
2023-05-08T19:41:11.747Z,17.26
2023-05-08T19:43:38.288Z,17.16
2023-05-08T19:46:04.686Z,17.11
2023-05-08T19:48:31.229Z,17.06
2023-05-08T19:50:57.816Z,17.02
2023-05-08T19:53:24.346Z,16.94
2023-05-08T19:55:50.883Z,16.81
2023-05-08T19:58:17.811Z,16.63
2023-05-08T20:00:50.810Z,16.57
2023-05-08T20:03:17.895Z,16.51
2023-05-08T20:05:44.521Z,16.49
2023-05-08T20:08:10.968Z,16.47
2023-05-08T20:10:37.572Z,16.42
2023-05-08T20:13:05.531Z,16.42
2023-05-08T20:15:32.095Z,16.38
2023-05-08T20:17:59.572Z,16.34
2023-05-08T20:20:27.167Z,16.20
2023-05-08T20:22:53.624Z,16.11
2023-05-08T20:25:20.101Z,16.04
2023-05-08T20:27:46.480Z,16.01
2023-05-08T20:30:13.511Z,16.00
2023-05-08T20:32:40.230Z,15.97
2023-05-08T20:35:07.100Z,15.96
2023-05-08T20:37:33.469Z,15.98
2023-05-08T20:39:59.885Z,15.98
2023-05-08T20:42:26.265Z,15.99
2023-05-08T20:44:52.945Z,16.03
2023-05-08T20:47:19.339Z,16.01
2023-05-08T20:49:45.839Z,16.00
2023-05-08T20:52:12.268Z,15.95
2023-05-08T20:54:38.622Z,15.94
2023-05-08T20:57:05.083Z,15.91
2023-05-08T20:59:31.420Z,15.90
2023-05-08T21:01:57.822Z,15.88
2023-05-08T21:04:24.274Z,15.89
2023-05-08T21:06:53.998Z,15.92
2023-05-08T21:09:20.626Z,15.94
2023-05-08T21:11:47.198Z,15.93
2023-05-08T21:14:13.567Z,15.92
2023-05-08T21:16:40.003Z,15.92
2023-05-08T21:19:06.429Z,15.88
2023-05-08T21:21:33.471Z,15.85
2023-05-08T21:24:00.035Z,15.83
2023-05-08T21:26:26.503Z,15.82
2023-05-08T21:28:53.664Z,15.76
2023-05-08T21:31:20.368Z,15.71
2023-05-08T21:33:46.925Z,15.70
2023-05-08T21:36:13.368Z,15.69
2023-05-08T21:38:39.779Z,15.67
2023-05-08T21:41:08.000Z,15.67
2023-05-08T21:43:38.814Z,15.59
2023-05-08T21:46:07.113Z,15.62
2023-05-08T21:48:34.004Z,15.65
2023-05-08T21:51:01.438Z,15.64
2023-05-08T21:53:28.125Z,15.59
2023-05-08T21:55:54.678Z,15.57
2023-05-08T21:58:21.107Z,15.54
2023-05-08T22:00:47.572Z,15.51
2023-05-08T22:03:14.059Z,15.45
2023-05-08T22:05:40.655Z,15.44
2023-05-08T22:08:07.200Z,15.46
2023-05-08T22:10:33.605Z,15.47
2023-05-08T22:13:01.535Z,15.46
2023-05-08T22:15:30.251Z,15.47
2023-05-08T22:17:57.162Z,15.41
2023-05-08T22:20:23.806Z,15.40
2023-05-08T22:22:50.602Z,15.42
2023-05-08T22:25:17.159Z,15.38
2023-05-08T22:27:43.627Z,15.38
2023-05-08T22:30:10.372Z,15.36
2023-05-08T22:32:36.871Z,15.35
2023-05-08T22:35:03.538Z,15.34
2023-05-08T22:37:30.490Z,15.33
2023-05-08T22:39:56.996Z,15.30
2023-05-08T22:42:24.057Z,15.25
2023-05-08T22:44:51.054Z,15.23
2023-05-08T22:47:17.855Z,15.23
2023-05-08T22:49:44.487Z,15.22
2023-05-08T22:52:10.996Z,15.15
2023-05-08T22:54:37.409Z,15.12
2023-05-08T22:57:04.000Z,15.11
2023-05-08T22:59:30.496Z,15.09
2023-05-08T23:01:57.035Z,15.03
2023-05-08T23:04:23.464Z,15.02
2023-05-08T23:06:49.932Z,15.02
2023-05-08T23:09:16.476Z,14.98
2023-05-08T23:11:42.960Z,14.92
2023-05-08T23:14:09.494Z,14.83
2023-05-08T23:16:36.215Z,14.79
2023-05-08T23:19:04.432Z,14.79
2023-05-08T23:21:32.142Z,14.81
2023-05-08T23:23:58.947Z,14.78
2023-05-08T23:26:26.075Z,14.74
2023-05-08T23:28:52.528Z,14.74
2023-05-08T23:31:19.023Z,14.73
2023-05-08T23:33:45.465Z,14.73
2023-05-08T23:36:12.169Z,14.70
2023-05-08T23:38:38.718Z,14.70
2023-05-08T23:41:05.462Z,14.69
2023-05-08T23:43:32.097Z,14.67
2023-05-08T23:45:58.738Z,14.63
2023-05-08T23:48:25.905Z,14.56
2023-05-08T23:50:52.367Z,14.53
2023-05-08T23:53:18.961Z,14.55
2023-05-08T23:55:45.639Z,14.52
2023-05-08T23:58:11.989Z,14.48
